sensor_id;sensor_type;location;lat;lon;timestamp;pressure;altitude;pressure_sealevel;temperature;humidity
77737;BME280;66903;59.926;30.404;2023-08-20T00:04:52;102194.22;;;25.53;54.91
77737;BME280;66903;59.926;30.404;2023-08-20T00:09:54;102199.09;;;25.52;55.22
77737;BME280;66903;59.926;30.404;2023-08-20T00:15:00;102198.22;;;25.52;54.87
77737;BME280;66903;59.926;30.404;2023-08-20T00:20:08;102202.25;;;25.51;54.89
77737;BME280;66903;59.926;30.404;2023-08-20T00:25:17;102185.31;;;25.44;54.98
77737;BME280;66903;59.926;30.404;2023-08-20T00:30:18;102190.75;;;25.41;54.91
77737;BME280;66903;59.926;30.404;2023-08-20T00:35:18;102190.75;;;25.41;54.53
77737;BME280;66903;59.926;30.404;2023-08-20T00:40:19;102183.88;;;25.37;54.87
77737;BME280;66903;59.926;30.404;2023-08-20T00:45:20;102185.59;;;25.38;54.50
77737;BME280;66903;59.926;30.404;2023-08-20T00:50:21;102183.88;;;25.37;54.52
77737;BME280;66903;59.926;30.404;2023-08-20T00:55:22;102182.09;;;25.36;54.33
77737;BME280;66903;59.926;30.404;2023-08-20T01:00:23;102173.81;;;25.34;54.16
77737;BME280;66903;59.926;30.404;2023-08-20T01:05:24;102177.25;;;25.36;53.80
77737;BME280;66903;59.926;30.404;2023-08-20T01:11:09;102182.97;;;25.36;53.97
77737;BME280;66903;59.926;30.404;2023-08-20T01:15:51;102175.22;;;25.32;53.83
77737;BME280;66903;59.926;30.404;2023-08-20T01:20:56;102170.38;;;25.32;53.79
77737;BME280;66903;59.926;30.404;2023-08-20T01:26:30;102165.50;;;25.33;54.11
77737;BME280;66903;59.926;30.404;2023-08-20T01:31:32;102170.66;;;25.36;54.23
77737;BME280;66903;59.926;30.404;2023-08-20T01:36:33;102163.84;;;25.37;53.53
77737;BME280;66903;59.926;30.404;2023-08-20T01:41:34;102170.72;;;25.41;53.71
77737;BME280;66903;59.926;30.404;2023-08-20T01:46:35;102167.56;;;25.37;54.51
77737;BME280;66903;59.926;30.404;2023-08-20T01:51:37;102161.78;;;25.32;53.75
77737;BME280;66903;59.926;30.404;2023-08-20T01:56:37;102155.75;;;25.24;53.81
77737;BME280;66903;59.926;30.404;2023-08-20T02:01:38;102170.63;;;25.26;54.05
77737;BME280;66903;59.926;30.404;2023-08-20T02:06:38;102169.16;;;25.23;53.30
77737;BME280;66903;59.926;30.404;2023-08-20T02:11:39;102187.19;;;25.24;53.55
77737;BME280;66903;59.926;30.404;2023-08-20T02:16:40;102186.34;;;25.23;53.68
77737;BME280;66903;59.926;30.404;2023-08-20T02:21:40;102190.66;;;25.26;53.17
77737;BME280;66903;59.926;30.404;2023-08-20T02:26:41;102161.47;;;25.29;52.80
77737;BME280;66903;59.926;30.404;2023-08-20T02:31:41;102184.94;;;25.26;53.09
77737;BME280;66903;59.926;30.404;2023-08-20T02:36:42;102174.59;;;25.25;53.05
77737;BME280;66903;59.926;30.404;2023-08-20T02:41:43;102181.50;;;25.29;52.54
77737;BME280;66903;59.926;30.404;2023-08-20T02:46:43;102178.63;;;25.29;52.43
77737;BME280;66903;59.926;30.404;2023-08-20T02:51:45;102187.22;;;25.29;52.87
77737;BME280;66903;59.926;30.404;2023-08-20T02:56:45;102177.78;;;25.28;52.47
77737;BME280;66903;59.926;30.404;2023-08-20T03:01:46;102176.38;;;25.31;52.41
77737;BME280;66903;59.926;30.404;2023-08-20T03:06:46;102175.78;;;25.29;52.27
77737;BME280;66903;59.926;30.404;2023-08-20T03:11:47;102182.06;;;25.26;52.06
77737;BME280;66903;59.926;30.404;2023-08-20T03:16:47;102160.88;;;25.22;52.33
77737;BME280;66903;59.926;30.404;2023-08-20T03:21:48;102161.75;;;25.22;52.39
77737;BME280;66903;59.926;30.404;2023-08-20T03:26:48;102178.63;;;25.24;52.21
77737;BME280;66903;59.926;30.404;2023-08-20T03:31:49;102172.03;;;25.23;51.48
77737;BME280;66903;59.926;30.404;2023-08-20T03:36:49;102163.16;;;25.19;51.57
77737;BME280;66903;59.926;30.404;2023-08-20T03:41:51;102162.25;;;25.14;51.53
77737;BME280;66903;59.926;30.404;2023-08-20T03:46:52;102166.25;;;25.08;51.70
77737;BME280;66903;59.926;30.404;2023-08-20T03:51:52;102160.53;;;25.08;51.48
77737;BME280;66903;59.926;30.404;2023-08-20T03:56:53;102165.69;;;25.11;51.49
77737;BME280;66903;59.926;30.404;2023-08-20T04:01:53;102167.44;;;25.17;51.51
77737;BME280;66903;59.926;30.404;2023-08-20T04:06:54;102160.00;;;25.16;50.71
77737;BME280;66903;59.926;30.404;2023-08-20T04:11:55;102162.81;;;25.06;50.47
77737;BME280;66903;59.926;30.404;2023-08-20T04:16:55;102179.03;;;24.95;50.39
77737;BME280;66903;59.926;30.404;2023-08-20T04:21:56;102182.97;;;24.84;50.88
77737;BME280;66903;59.926;30.404;2023-08-20T04:26:56;102184.13;;;24.83;50.43
77737;BME280;66903;59.926;30.404;2023-08-20T04:31:57;102193.25;;;24.80;50.31
77737;BME280;66903;59.926;30.404;2023-08-20T04:36:57;102191.44;;;24.69;50.21
77737;BME280;66903;59.926;30.404;2023-08-20T04:41:58;102193.13;;;24.34;50.10
77737;BME280;66903;59.926;30.404;2023-08-20T04:47:00;102210.50;;;24.00;51.57
77737;BME280;66903;59.926;30.404;2023-08-20T04:52:01;102216.03;;;23.85;51.98
77737;BME280;66903;59.926;30.404;2023-08-20T04:57:02;102224.47;;;23.75;54.16
77737;BME280;66903;59.926;30.404;2023-08-20T05:02:03;102221.09;;;24.05;53.53
77737;BME280;66903;59.926;30.404;2023-08-20T05:07:03;102211.22;;;24.44;53.07
77737;BME280;66903;59.926;30.404;2023-08-20T05:12:04;102213.91;;;24.92;51.13
77737;BME280;66903;59.926;30.404;2023-08-20T05:17:05;102203.47;;;25.18;50.74
77737;BME280;66903;59.926;30.404;2023-08-20T05:22:05;102210.38;;;25.22;49.65
77737;BME280;66903;59.926;30.404;2023-08-20T05:27:11;102212.16;;;25.33;49.72
77737;BME280;66903;59.926;30.404;2023-08-20T05:32:14;102198.50;;;25.45;48.90
77737;BME280;66903;59.926;30.404;2023-08-20T05:37:18;102195.13;;;25.63;49.86
77737;BME280;66903;59.926;30.404;2023-08-20T05:42:18;102200.03;;;25.88;48.20
77737;BME280;66903;59.926;30.404;2023-08-20T05:47:19;102196.66;;;25.96;48.77
77737;BME280;66903;59.926;30.404;2023-08-20T05:52:19;102202.72;;;26.14;47.09
77737;BME280;66903;59.926;30.404;2023-08-20T05:57:20;102209.31;;;26.25;46.99
77737;BME280;66903;59.926;30.404;2023-08-20T06:02:20;102201.00;;;26.34;46.08
77737;BME280;66903;59.926;30.404;2023-08-20T06:07:21;102199.00;;;26.39;46.82
77737;BME280;66903;59.926;30.404;2023-08-20T06:12:22;102203.91;;;26.44;46.99
77737;BME280;66903;59.926;30.404;2023-08-20T06:17:23;102200.16;;;26.53;46.88
77737;BME280;66903;59.926;30.404;2023-08-20T06:22:23;102207.06;;;26.67;46.15
77737;BME280;66903;59.926;30.404;2023-08-20T06:27:24;102199.59;;;26.66;44.65
77737;BME280;66903;59.926;30.404;2023-08-20T06:32:24;102189.25;;;26.55;44.76
77737;BME280;66903;59.926;30.404;2023-08-20T06:37:25;102187.81;;;26.53;45.55
77737;BME280;66903;59.926;30.404;2023-08-20T06:42:26;102188.69;;;26.48;45.43
77737;BME280;66903;59.926;30.404;2023-08-20T06:47:26;102190.13;;;26.61;44.43
77737;BME280;66903;59.926;30.404;2023-08-20T06:52:27;102184.09;;;26.77;43.63
77737;BME280;66903;59.926;30.404;2023-08-20T06:57:27;102190.97;;;27.01;43.88
77737;BME280;66903;59.926;30.404;2023-08-20T07:02:28;102187.41;;;27.40;43.94
77737;BME280;66903;59.926;30.404;2023-08-20T07:07:28;102187.69;;;27.97;43.70
77737;BME280;66903;59.926;30.404;2023-08-20T07:12:29;102193.94;;;28.53;42.39
77737;BME280;66903;59.926;30.404;2023-08-20T07:17:30;102189.72;;;28.97;40.00
77737;BME280;66903;59.926;30.404;2023-08-20T07:22:30;102187.09;;;29.29;40.23
77737;BME280;66903;59.926;30.404;2023-08-20T07:27:31;102184.34;;;29.62;40.27
77737;BME280;66903;59.926;30.404;2023-08-20T07:32:31;102184.91;;;29.87;40.29
77737;BME280;66903;59.926;30.404;2023-08-20T07:37:32;102183.66;;;30.12;39.77
77737;BME280;66903;59.926;30.404;2023-08-20T07:42:32;102193.72;;;30.33;39.45
77737;BME280;66903;59.926;30.404;2023-08-20T07:47:34;102187.09;;;30.51;39.23
77737;BME280;66903;59.926;30.404;2023-08-20T07:52:34;102185.59;;;30.67;38.99
77737;BME280;66903;59.926;30.404;2023-08-20T07:57:35;102190.84;;;30.84;38.50
77737;BME280;66903;59.926;30.404;2023-08-20T08:02:35;102195.63;;;30.88;38.44
77737;BME280;66903;59.926;30.404;2023-08-20T08:07:36;102201.72;;;30.87;37.77
77737;BME280;66903;59.926;30.404;2023-08-20T08:12:37;102203.69;;;30.91;38.16
77737;BME280;66903;59.926;30.404;2023-08-20T08:17:37;102186.88;;;30.93;38.39
77737;BME280;66903;59.926;30.404;2023-08-20T08:22:39;102195.25;;;31.08;37.85
77737;BME280;66903;59.926;30.404;2023-08-20T08:27:39;102189.16;;;31.23;37.62
77737;BME280;66903;59.926;30.404;2023-08-20T08:32:40;102190.06;;;31.37;37.11
77737;BME280;66903;59.926;30.404;2023-08-20T08:37:41;102189.00;;;31.47;36.50
77737;BME280;66903;59.926;30.404;2023-08-20T08:42:41;102182.78;;;31.54;36.55
77737;BME280;66903;59.926;30.404;2023-08-20T08:47:45;102178.84;;;31.63;36.61
77737;BME280;66903;59.926;30.404;2023-08-20T08:52:47;102179.25;;;31.70;36.76
77737;BME280;66903;59.926;30.404;2023-08-20T08:57:51;102174.53;;;31.74;36.25
77737;BME280;66903;59.926;30.404;2023-08-20T09:02:51;102165.44;;;31.81;36.57
77737;BME280;66903;59.926;30.404;2023-08-20T09:07:56;102153.66;;;31.91;36.65
77737;BME280;66903;59.926;30.404;2023-08-20T09:12:57;102161.34;;;31.95;35.88
77737;BME280;66903;59.926;30.404;2023-08-20T09:18:01;102161.94;;;32.06;35.63
77737;BME280;66903;59.926;30.404;2023-08-20T09:23:02;102146.88;;;32.09;35.72
77737;BME280;66903;59.926;30.404;2023-08-20T09:28:03;102148.63;;;32.18;35.51
77737;BME280;66903;59.926;30.404;2023-08-20T09:33:09;102158.25;;;32.27;35.84
77737;BME280;66903;59.926;30.404;2023-08-20T09:38:10;102149.09;;;32.34;35.05
77737;BME280;66903;59.926;30.404;2023-08-20T09:43:12;102155.84;;;32.43;35.34
77737;BME280;66903;59.926;30.404;2023-08-20T09:48:18;102138.34;;;32.48;35.20
77737;BME280;66903;59.926;30.404;2023-08-20T09:53:34;102138.72;;;32.55;35.47
77737;BME280;66903;59.926;30.404;2023-08-20T09:58:37;102138.72;;;32.55;34.60
77737;BME280;66903;59.926;30.404;2023-08-20T10:03:38;102132.31;;;32.58;34.67
77737;BME280;66903;59.926;30.404;2023-08-20T10:08:39;102138.28;;;32.62;34.90
77737;BME280;66903;59.926;30.404;2023-08-20T10:13:40;102124.78;;;32.57;34.50
77737;BME280;66903;59.926;30.404;2023-08-20T10:18:41;102137.38;;;32.53;34.72
77737;BME280;66903;59.926;30.404;2023-08-20T10:23:42;102148.47;;;32.59;34.43
77737;BME280;66903;59.926;30.404;2023-08-20T10:28:42;102134.84;;;32.90;34.40
77737;BME280;66903;59.926;30.404;2023-08-20T10:38:47;102133.91;;;34.67;31.21
77737;BME280;66903;59.926;30.404;2023-08-20T10:43:48;102136.69;;;35.10;30.88
77737;BME280;66903;59.926;30.404;2023-08-20T10:48:56;102131.09;;;34.88;30.00
77737;BME280;66903;59.926;30.404;2023-08-20T10:59:06;102122.25;;;33.73;32.62
77737;BME280;66903;59.926;30.404;2023-08-20T11:04:08;102120.06;;;33.31;33.11
77737;BME280;66903;59.926;30.404;2023-08-20T11:09:09;102114.84;;;33.02;32.25
77737;BME280;66903;59.926;30.404;2023-08-20T11:14:14;102111.84;;;32.85;33.32
77737;BME280;66903;59.926;30.404;2023-08-20T11:19:20;102112.44;;;32.65;33.26
77737;BME280;66903;59.926;30.404;2023-08-20T11:24:21;102106.75;;;32.38;33.66
77737;BME280;66903;59.926;30.404;2023-08-20T11:29:22;102112.03;;;32.14;33.88
77737;BME280;66903;59.926;30.404;2023-08-20T11:34:22;102115.09;;;31.95;32.91
77737;BME280;66903;59.926;30.404;2023-08-20T11:39:23;102105.91;;;31.80;33.69
77737;BME280;66903;59.926;30.404;2023-08-20T11:44:24;102099.97;;;31.63;32.66
77737;BME280;66903;59.926;30.404;2023-08-20T11:49:27;102091.97;;;31.46;33.61
77737;BME280;66903;59.926;30.404;2023-08-20T11:54:31;102093.94;;;31.37;32.69
77737;BME280;66903;59.926;30.404;2023-08-20T11:59:33;102095.41;;;31.21;32.55
77737;BME280;66903;59.926;30.404;2023-08-20T12:04:34;102089.81;;;31.11;32.41
77737;BME280;66903;59.926;30.404;2023-08-20T12:09:35;102087.50;;;30.99;32.57
77737;BME280;66903;59.926;30.404;2023-08-20T12:14:36;102069.53;;;30.89;32.43
77737;BME280;66903;59.926;30.404;2023-08-20T12:19:37;102071.66;;;30.83;33.53
77737;BME280;66903;59.926;30.404;2023-08-20T12:24:38;102073.75;;;30.78;32.88
77737;BME280;66903;59.926;30.404;2023-08-20T12:29:39;102075.38;;;30.70;32.97
77737;BME280;66903;59.926;30.404;2023-08-20T12:34:39;102069.94;;;30.69;34.16
77737;BME280;66903;59.926;30.404;2023-08-20T12:39:40;102060.91;;;30.57;32.84
77737;BME280;66903;59.926;30.404;2023-08-20T12:44:40;102074.06;;;30.49;33.40
77737;BME280;66903;59.926;30.404;2023-08-20T12:49:41;102066.84;;;30.33;33.79
77737;BME280;66903;59.926;30.404;2023-08-20T12:54:42;102064.63;;;30.30;33.97
77737;BME280;66903;59.926;30.404;2023-08-20T12:59:42;102060.16;;;30.19;33.64
77737;BME280;66903;59.926;30.404;2023-08-20T13:04:43;102051.69;;;30.09;34.86
77737;BME280;66903;59.926;30.404;2023-08-20T13:09:44;102052.75;;;30.13;34.92
77737;BME280;66903;59.926;30.404;2023-08-20T13:14:45;102046.38;;;30.16;34.88
77737;BME280;66903;59.926;30.404;2023-08-20T13:19:45;102048.94;;;30.17;33.64
77737;BME280;66903;59.926;30.404;2023-08-20T13:24:46;102041.00;;;30.09;34.87
77737;BME280;66903;59.926;30.404;2023-08-20T13:29:47;102037.59;;;30.07;34.27
77737;BME280;66903;59.926;30.404;2023-08-20T13:34:49;102044.41;;;29.98;34.07
77737;BME280;66903;59.926;30.404;2023-08-20T13:39:49;102038.81;;;29.88;33.69
77737;BME280;66903;59.926;30.404;2023-08-20T13:44:50;102041.94;;;29.73;34.22
77737;BME280;66903;59.926;30.404;2023-08-20T13:49:51;102030.00;;;29.61;34.68
77737;BME280;66903;59.926;30.404;2023-08-20T13:54:51;102021.13;;;29.57;33.88
77737;BME280;66903;59.926;30.404;2023-08-20T13:59:52;102027.06;;;29.47;34.91
77737;BME280;66903;59.926;30.404;2023-08-20T14:04:52;102024.50;;;29.46;34.51
77737;BME280;66903;59.926;30.404;2023-08-20T14:09:53;102019.34;;;29.42;34.09
77737;BME280;66903;59.926;30.404;2023-08-20T14:14:53;102029.91;;;29.28;34.76
77737;BME280;66903;59.926;30.404;2023-08-20T14:19:54;102022.63;;;29.17;34.96
77737;BME280;66903;59.926;30.404;2023-08-20T14:24:56;102022.63;;;29.17;35.60
77737;BME280;66903;59.926;30.404;2023-08-20T14:29:57;102011.69;;;29.14;35.14
77737;BME280;66903;59.926;30.404;2023-08-20T14:34:58;102010.38;;;29.07;35.32
77737;BME280;66903;59.926;30.404;2023-08-20T14:39:59;102009.00;;;28.81;35.01
77737;BME280;66903;59.926;30.404;2023-08-20T14:45:00;102001.53;;;28.56;35.68
77737;BME280;66903;59.926;30.404;2023-08-20T14:50:00;102002.84;;;28.40;35.78
77737;BME280;66903;59.926;30.404;2023-08-20T14:55:01;101994.56;;;28.33;35.84
77737;BME280;66903;59.926;30.404;2023-08-20T15:00:02;102004.53;;;28.41;36.58
77737;BME280;66903;59.926;30.404;2023-08-20T15:05:06;102004.66;;;28.60;35.92
77737;BME280;66903;59.926;30.404;2023-08-20T15:10:07;102003.59;;;28.51;35.87
77737;BME280;66903;59.926;30.404;2023-08-20T15:15:08;102000.53;;;28.42;35.67
77737;BME280;66903;59.926;30.404;2023-08-20T15:20:09;101982.81;;;28.30;36.68
77737;BME280;66903;59.926;30.404;2023-08-20T15:25:10;101981.22;;;28.19;36.44
77737;BME280;66903;59.926;30.404;2023-08-20T15:30:11;101972.69;;;28.09;36.90
77737;BME280;66903;59.926;30.404;2023-08-20T15:35:12;101971.31;;;28.06;36.58
77737;BME280;66903;59.926;30.404;2023-08-20T15:40:12;101976.44;;;28.09;36.55
77737;BME280;66903;59.926;30.404;2023-08-20T15:45:13;101966.44;;;28.02;37.41
77737;BME280;66903;59.926;30.404;2023-08-20T15:50:14;101981.03;;;28.10;37.20
77737;BME280;66903;59.926;30.404;2023-08-20T15:55:15;101976.50;;;28.04;36.49
77737;BME280;66903;59.926;30.404;2023-08-20T16:00:16;101979.16;;;27.96;36.98
77737;BME280;66903;59.926;30.404;2023-08-20T16:05:17;101974.31;;;27.91;36.76
77737;BME280;66903;59.926;30.404;2023-08-20T16:10:17;101977.44;;;27.95;37.22
77737;BME280;66903;59.926;30.404;2023-08-20T16:15:18;101974.03;;;27.93;37.13
77737;BME280;66903;59.926;30.404;2023-08-20T16:20:19;101968.00;;;27.89;37.16
77737;BME280;66903;59.926;30.404;2023-08-20T16:25:20;101975.25;;;27.82;37.80
77737;BME280;66903;59.926;30.404;2023-08-20T16:30:21;101970.91;;;27.84;37.34
77737;BME280;66903;59.926;30.404;2023-08-20T16:35:21;101973.19;;;27.87;38.24
77737;BME280;66903;59.926;30.404;2023-08-20T16:40:23;101966.28;;;27.88;37.10
77737;BME280;66903;59.926;30.404;2023-08-20T16:45:24;101974.78;;;27.70;37.97
77737;BME280;66903;59.926;30.404;2023-08-20T16:50:25;101972.59;;;27.57;38.28
77737;BME280;66903;59.926;30.404;2023-08-20T16:55:26;101968.94;;;27.46;38.54
77737;BME280;66903;59.926;30.404;2023-08-20T17:00:27;101971.56;;;27.43;38.18
77737;BME280;66903;59.926;30.404;2023-08-20T17:05:28;101959.88;;;27.34;38.58
77737;BME280;66903;59.926;30.404;2023-08-20T17:10:29;101970.56;;;27.18;39.32
77737;BME280;66903;59.926;30.404;2023-08-20T17:15:31;101977.44;;;27.22;39.27
77737;BME280;66903;59.926;30.404;2023-08-20T17:20:32;101974.50;;;27.33;39.35
77737;BME280;66903;59.926;30.404;2023-08-20T17:25:34;101969.94;;;27.32;39.07
77737;BME280;66903;59.926;30.404;2023-08-20T17:30:35;101976.56;;;27.22;39.68
77737;BME280;66903;59.926;30.404;2023-08-20T17:35:36;101968.25;;;27.20;40.17
77737;BME280;66903;59.926;30.404;2023-08-20T17:40:37;101971.44;;;27.19;40.96
77737;BME280;66903;59.926;30.404;2023-08-20T17:45:38;101979.72;;;27.20;39.95
77737;BME280;66903;59.926;30.404;2023-08-20T17:50:39;101983.47;;;27.21;40.52
77737;BME280;66903;59.926;30.404;2023-08-20T17:55:39;101977.22;;;27.14;40.51
77737;BME280;66903;59.926;30.404;2023-08-20T18:00:43;101989.47;;;27.19;40.16
77737;BME280;66903;59.926;30.404;2023-08-20T18:05:44;101989.66;;;26.94;40.25
77737;BME280;66903;59.926;30.404;2023-08-20T18:10:45;101989.13;;;26.87;40.67
77737;BME280;66903;59.926;30.404;2023-08-20T18:15:45;101993.09;;;26.96;40.34
77737;BME280;66903;59.926;30.404;2023-08-20T18:20:46;101986.41;;;27.06;39.59
77737;BME280;66903;59.926;30.404;2023-08-20T18:25:47;101986.03;;;26.64;40.28
77737;BME280;66903;59.926;30.404;2023-08-20T18:30:52;101983.91;;;26.05;40.87
77737;BME280;66903;59.926;30.404;2023-08-20T18:36:00;101990.78;;;25.59;41.40
77737;BME280;66903;59.926;30.404;2023-08-20T18:41:02;101983.56;;;25.22;42.25
77737;BME280;66903;59.926;30.404;2023-08-20T18:46:03;101978.94;;;24.95;42.92
77737;BME280;66903;59.926;30.404;2023-08-20T18:51:05;101969.97;;;24.72;43.40
77737;BME280;66903;59.926;30.404;2023-08-20T18:56:06;101970.81;;;24.67;44.57
77737;BME280;66903;59.926;30.404;2023-08-20T19:01:07;101968.69;;;25.19;43.93
77737;BME280;66903;59.926;30.404;2023-08-20T19:06:07;101971.03;;;25.43;43.09
77737;BME280;66903;59.926;30.404;2023-08-20T19:11:08;101970.94;;;25.12;43.57
77737;BME280;66903;59.926;30.404;2023-08-20T19:16:08;101961.47;;;24.87;44.70
77737;BME280;66903;59.926;30.404;2023-08-20T19:21:09;101960.38;;;25.08;44.69
77737;BME280;66903;59.926;30.404;2023-08-20T19:26:10;101962.75;;;25.46;43.87
77737;BME280;66903;59.926;30.404;2023-08-20T19:31:10;101956.13;;;25.81;43.65
77737;BME280;66903;59.926;30.404;2023-08-20T19:36:12;101962.72;;;26.01;43.28
77737;BME280;66903;59.926;30.404;2023-08-20T19:41:13;101962.97;;;26.20;43.04
77737;BME280;66903;59.926;30.404;2023-08-20T19:46:13;101963.53;;;26.27;43.27
77737;BME280;66903;59.926;30.404;2023-08-20T19:51:14;101953.78;;;26.23;43.65
77737;BME280;66903;59.926;30.404;2023-08-20T19:56:14;101955.25;;;26.00;44.01
77737;BME280;66903;59.926;30.404;2023-08-20T20:01:15;101951.84;;;25.78;45.31
77737;BME280;66903;59.926;30.404;2023-08-20T20:06:16;101957.88;;;25.62;45.20
77737;BME280;66903;59.926;30.404;2023-08-20T20:11:16;101963.91;;;25.40;45.93
77737;BME280;66903;59.926;30.404;2023-08-20T20:16:17;101961.53;;;25.17;47.11
77737;BME280;66903;59.926;30.404;2023-08-20T20:21:18;101963.78;;;25.00;46.83
77737;BME280;66903;59.926;30.404;2023-08-20T20:26:18;101968.00;;;24.77;47.00
77737;BME280;66903;59.926;30.404;2023-08-20T20:31:19;101967.41;;;24.70;47.79
77737;BME280;66903;59.926;30.404;2023-08-20T20:36:20;101971.91;;;24.61;47.92
77737;BME280;66903;59.926;30.404;2023-08-20T20:41:20;101959.84;;;24.49;48.91
77737;BME280;66903;59.926;30.404;2023-08-20T20:46:21;101969.28;;;24.50;49.14
77737;BME280;66903;59.926;30.404;2023-08-20T20:51:22;101958.75;;;24.50;48.62
77737;BME280;66903;59.926;30.404;2023-08-20T20:56:23;101959.88;;;24.54;48.99
77737;BME280;66903;59.926;30.404;2023-08-20T21:01:24;101957.88;;;24.50;49.35
77737;BME280;66903;59.926;30.404;2023-08-20T21:06:24;101958.41;;;24.42;49.36
77737;BME280;66903;59.926;30.404;2023-08-20T21:11:25;101954.69;;;24.36;49.48
77737;BME280;66903;59.926;30.404;2023-08-20T21:16:25;101963.47;;;24.30;49.10
77737;BME280;66903;59.926;30.404;2023-08-20T21:21:26;101964.03;;;24.27;49.48
77737;BME280;66903;59.926;30.404;2023-08-20T21:26:26;101967.16;;;24.25;49.70
77737;BME280;66903;59.926;30.404;2023-08-20T21:31:27;101965.72;;;24.23;49.40
77737;BME280;66903;59.926;30.404;2023-08-20T21:36:28;101960.28;;;24.21;49.96
77737;BME280;66903;59.926;30.404;2023-08-20T21:41:28;101964.56;;;24.19;49.60
77737;BME280;66903;59.926;30.404;2023-08-20T21:46:29;101952.53;;;24.06;49.91
77737;BME280;66903;59.926;30.404;2023-08-20T21:51:29;101951.00;;;23.99;49.73
77737;BME280;66903;59.926;30.404;2023-08-20T21:56:30;101942.09;;;23.90;50.28
77737;BME280;66903;59.926;30.404;2023-08-20T22:01:31;101945.53;;;23.92;50.08
77737;BME280;66903;59.926;30.404;2023-08-20T22:06:31;101943.53;;;23.93;50.36
77737;BME280;66903;59.926;30.404;2023-08-20T22:11:32;101933.47;;;23.80;50.10
77737;BME280;66903;59.926;30.404;2023-08-20T22:16:33;101932.59;;;23.75;50.32
77737;BME280;66903;59.926;30.404;2023-08-20T22:21:33;101937.38;;;23.69;50.32
77737;BME280;66903;59.926;30.404;2023-08-20T22:26:35;101934.53;;;23.69;50.86
77737;BME280;66903;59.926;30.404;2023-08-20T22:31:35;101931.41;;;23.71;50.38
77737;BME280;66903;59.926;30.404;2023-08-20T22:36:36;101938.81;;;23.72;50.67
77737;BME280;66903;59.926;30.404;2023-08-20T22:41:36;101939.09;;;23.70;50.39
77737;BME280;66903;59.926;30.404;2023-08-20T22:46:37;101938.19;;;23.65;50.66
77737;BME280;66903;59.926;30.404;2023-08-20T22:51:37;101932.19;;;23.61;50.25
77737;BME280;66903;59.926;30.404;2023-08-20T22:56:38;101942.19;;;23.64;50.77
77737;BME280;66903;59.926;30.404;2023-08-20T23:01:39;101930.16;;;23.57;50.50
77737;BME280;66903;59.926;30.404;2023-08-20T23:06:40;101922.91;;;23.44;50.86
77737;BME280;66903;59.926;30.404;2023-08-20T23:11:41;101926.09;;;23.48;50.63
77737;BME280;66903;59.926;30.404;2023-08-20T23:16:41;101924.91;;;23.44;50.43
77737;BME280;66903;59.926;30.404;2023-08-20T23:21:42;101935.47;;;23.43;50.79
77737;BME280;66903;59.926;30.404;2023-08-20T23:26:42;101939.78;;;23.51;50.78
77737;BME280;66903;59.926;30.404;2023-08-20T23:31:43;101936.91;;;23.46;50.51
77737;BME280;66903;59.926;30.404;2023-08-20T23:36:44;101936.91;;;23.46;50.80
77737;BME280;66903;59.926;30.404;2023-08-20T23:41:45;101936.91;;;23.46;50.86
77737;BME280;66903;59.926;30.404;2023-08-20T23:46:45;101938.06;;;23.45;50.51
77737;BME280;66903;59.926;30.404;2023-08-20T23:51:46;101938.59;;;23.42;50.87
77737;BME280;66903;59.926;30.404;2023-08-20T23:56:46;101930.38;;;23.45;50.56
